Time;durP1;ratioP1;P1;durP2;ratioP2;P2;SDS_P1;SDS_P2;PMS_P1;PMS_P2;Temp;Humidity;BMP_temperature;BMP_pressure;BME280_temperature;BME280_humidity;BME280_pressure;Samples;Min_cycle;Max_cycle;Signal;HPM_P1;HPM_P2
2024/04/18 00:02:22;;;;;;;0.10;0.10;;;;;;;8.10;66.25;101759.91;7359194;19;20086;-63
2024/04/18 00:04:47;;;;;;;0.10;0.10;;;;;;;8.03;66.01;101758.13;7357603;19;20082;-62
2024/04/18 00:07:13;;;;;;;0.10;0.10;;;;;;;8.06;66.32;101764.22;7359654;19;20010;-63
2024/04/18 00:09:38;;;;;;;0.10;0.10;;;;;;;8.04;66.19;101767.69;7357444;19;20007;-63
2024/04/18 00:12:04;;;;;;;0.10;0.10;;;;;;;7.97;66.12;101764.19;7358529;19;20490;-64
2024/04/18 00:14:30;;;;;;;0.03;0.03;;;;;;;7.99;66.17;101780.66;7357624;19;20544;-62
2024/04/18 00:16:55;;;;;;;0.10;0.10;;;;;;;7.97;66.52;101778.94;7358983;19;20429;-62
2024/04/18 00:19:21;;;;;;;0.10;0.10;;;;;;;7.95;66.02;101778.03;7348913;19;20022;-62
2024/04/18 00:21:46;;;;;;;0.05;0.05;;;;;;;7.79;65.88;101753.66;7359042;19;20458;-62
2024/04/18 00:24:11;;;;;;;0.10;0.10;;;;;;;7.89;66.23;101776.25;7358587;19;20104;-62
2024/04/18 00:26:37;;;;;;;0.08;0.08;;;;;;;7.84;66.21;101779.69;7352742;19;20051;-63
2024/04/18 00:29:02;;;;;;;0.00;0.00;;;;;;;7.74;66.33;101773.56;7354130;19;20011;-63
2024/04/18 00:31:27;;;;;;;0.10;0.10;;;;;;;7.82;66.39;101790.09;7358592;19;20017;-62
2024/04/18 00:33:53;;;;;;;0.10;0.10;;;;;;;7.69;66.13;101772.69;7355532;19;20465;-64
2024/04/18 00:36:18;;;;;;;0.10;0.10;;;;;;;7.78;66.19;101783.16;7352509;19;20014;-62
2024/04/18 00:38:44;;;;;;;0.10;0.10;;;;;;;7.75;66.28;101783.97;7355544;19;20007;-63
2024/04/18 00:41:11;;;;;;;0.10;0.10;;;;;;;7.59;66.38;101763.09;7354292;19;20007;-62
2024/04/18 00:43:37;;;;;;;0.10;0.10;;;;;;;7.69;66.58;101783.06;7355602;19;20002;-62
2024/04/18 00:46:03;;;;;;;0.00;0.00;;;;;;;7.70;66.27;101795.22;7353562;19;20003;-62
2024/04/18 00:48:29;;;;;;;0.00;0.00;;;;;;;7.63;66.42;101801.25;7355417;19;20844;-62
2024/04/18 00:51:01;;;;;;;0.08;0.08;;;;;;;7.60;66.13;101803.81;7355659;19;20019;-61
2024/04/18 00:53:27;;;;;;;0.00;0.00;;;;;;;7.61;66.53;101808.16;7360752;19;21890;-62
2024/04/18 00:55:53;;;;;;;0.10;0.10;;;;;;;7.58;66.41;101811.59;7363985;19;20014;-62
2024/04/18 00:58:18;;;;;;;0.00;0.00;;;;;;;7.56;66.21;101808.13;7360237;19;20071;-62
2024/04/18 01:00:47;;;;;;;0.10;0.10;;;;;;;7.54;66.30;101796.84;7363817;19;20365;-62
2024/04/18 01:03:12;;;;;;;0.10;0.10;;;;;;;7.48;66.68;101794.19;7364756;19;20021;-63
2024/04/18 01:05:39;;;;;;;0.10;0.10;;;;;;;7.28;66.57;101749.88;7361739;19;20018;-62
2024/04/18 01:08:04;;;;;;;0.00;0.00;;;;;;;7.32;66.78;101761.16;7364974;19;20014;-63
2024/04/18 01:10:30;;;;;;;0.10;0.10;;;;;;;7.41;66.32;101782.91;7361068;19;20509;-62
2024/04/18 01:12:59;;;;;;;0.00;0.00;;;;;;;7.42;66.55;101792.44;7363135;19;20751;-63
2024/04/18 01:15:26;;;;;;;0.10;0.10;;;;;;;7.32;66.55;101772.44;7361994;19;20074;-62
2024/04/18 01:17:51;;;;;;;0.00;0.00;;;;;;;7.23;66.55;101767.16;7365148;19;20736;-62
2024/04/18 01:20:20;;;;;;;0.10;0.10;;;;;;;7.35;66.48;101795.84;7359050;19;20010;-62
2024/04/18 01:22:45;;;;;;;0.10;0.10;;;;;;;7.32;66.51;101793.22;7363926;19;20756;-63
2024/04/18 01:25:10;;;;;;;0.10;0.10;;;;;;;7.28;66.71;101781.03;7363966;19;20017;-63
2024/04/18 01:27:36;;;;;;;0.10;0.10;;;;;;;7.25;66.77;101778.44;7365071;19;20017;-62
2024/04/18 01:30:01;;;;;;;0.10;0.10;;;;;;;7.25;66.67;101775.84;7359282;19;20468;-62
2024/04/18 01:32:29;;;;;;;0.10;0.10;;;;;;;7.26;66.68;101782.78;7366402;19;20014;-62
2024/04/18 01:34:54;;;;;;;0.10;0.10;;;;;;;7.23;66.88;101772.34;7362182;19;20007;-63
2024/04/18 01:37:20;;;;;;;0.10;0.10;;;;;;;7.22;67.04;101770.63;7368311;19;20776;-62
2024/04/18 01:39:45;;;;;;;0.10;0.10;;;;;;;7.14;66.81;101756.69;7368216;19;20016;-63
2024/04/18 01:42:11;;;;;;;0.10;0.10;;;;;;;7.18;66.60;101758.44;7357970;19;20042;-63
2024/04/18 01:44:36;;;;;;;0.00;0.00;;;;;;;7.12;66.92;101755.81;7366683;19;20010;-61
2024/04/18 01:47:02;;;;;;;0.00;0.00;;;;;;;7.16;67.07;101771.44;7366034;19;20024;-62
2024/04/18 01:49:27;;;;;;;0.10;0.10;;;;;;;6.93;67.14;101737.47;7365483;19;20664;-62
2024/04/18 01:51:52;;;;;;;0.10;0.10;;;;;;;7.11;66.66;101769.66;7352035;19;20915;-62
2024/04/18 01:54:18;;;;;;;0.00;0.00;;;;;;;7.13;66.92;101767.94;7367655;19;20011;-62
2024/04/18 01:56:43;;;;;;;0.10;0.10;;;;;;;7.01;66.86;101751.38;7365846;19;20772;-62
2024/04/18 01:59:09;;;;;;;0.10;0.10;;;;;;;7.12;66.88;101774.00;7362288;19;20101;-63
2024/04/18 02:01:34;;;;;;;0.10;0.10;;;;;;;7.08;66.66;101762.69;7362117;19;20003;-62
2024/04/18 02:03:59;;;;;;;0.10;0.10;;;;;;;7.08;66.89;101748.84;7362194;19;20632;-61
2024/04/18 02:06:25;;;;;;;0.10;0.10;;;;;;;7.12;66.99;101761.88;7365580;19;20002;-62
2024/04/18 02:08:50;;;;;;;0.00;0.00;;;;;;;6.90;66.61;101718.41;7361196;19;20007;-62
2024/04/18 02:11:16;;;;;;;0.10;0.10;;;;;;;7.14;66.78;101761.88;7366325;19;20465;-62
2024/04/18 02:13:41;;;;;;;0.08;0.08;;;;;;;7.13;67.08;101760.13;7364859;19;20010;-61
2024/04/18 02:16:06;;;;;;;0.10;0.10;;;;;;;7.17;66.51;101777.50;7361247;19;20002;-61
2024/04/18 02:18:32;;;;;;;0.03;0.03;;;;;;;7.18;66.57;101781.81;7360556;19;20034;-62
2024/04/18 02:20:57;;;;;;;0.10;0.10;;;;;;;7.17;66.71;101777.50;7365034;19;20035;-61
2024/04/18 02:23:23;;;;;;;0.00;0.00;;;;;;;7.21;66.65;101784.47;7365366;19;20015;-61
2024/04/18 02:25:51;;;;;;;0.10;0.10;;;;;;;7.23;67.01;101782.72;7362656;19;20502;-62
2024/04/18 02:28:16;;;;;;;0.10;0.10;;;;;;;7.20;67.03;101783.59;7363425;19;20017;-60
2024/04/18 02:30:42;;;;;;;0.10;0.10;;;;;;;7.23;66.65;101781.00;7363382;19;20011;-62
2024/04/18 02:33:07;;;;;;;0.10;0.10;;;;;;;7.24;66.81;101785.34;7329479;19;20006;-63
2024/04/18 02:35:32;;;;;;;0.10;0.10;;;;;;;7.23;66.88;101782.72;7362766;19;20044;-63
2024/04/18 02:37:58;;;;;;;0.10;0.10;;;;;;;7.28;66.73;101796.63;7359752;19;20399;-62
2024/04/18 02:40:24;;;;;;;0.00;0.00;;;;;;;7.28;66.72;101791.44;7364009;19;20481;-62
2024/04/18 02:42:49;;;;;;;0.00;0.00;;;;;;;7.29;66.66;101787.97;7364847;19;20010;-62
2024/04/18 02:45:15;;;;;;;0.10;0.10;;;;;;;7.31;66.70;101790.63;7366361;19;20017;-62
2024/04/18 02:47:40;;;;;;;0.10;0.10;;;;;;;7.31;66.74;101791.47;7358687;19;20007;-62
2024/04/18 02:50:06;;;;;;;0.00;0.00;;;;;;;7.23;66.52;101777.53;7362806;19;20016;-60
2024/04/18 02:52:32;;;;;;;0.10;0.10;;;;;;;7.34;66.73;101804.47;7361888;19;20037;-61
2024/04/18 02:54:57;;;;;;;0.05;0.05;;;;;;;7.21;66.46;101784.47;7361851;19;20031;-61
2024/04/18 02:57:23;;;;;;;0.10;0.10;;;;;;;7.37;66.32;101816.63;7358434;19;20038;-61
2024/04/18 02:59:49;;;;;;;0.10;0.10;;;;;;;7.35;66.55;101811.44;7363930;19;20474;-60
2024/04/18 03:02:14;;;;;;;0.10;0.10;;;;;;;7.37;66.94;101807.09;7356312;19;20809;-60
2024/04/18 03:04:40;;;;;;;0.10;0.10;;;;;;;7.38;66.71;101798.44;7360783;19;20725;-62
2024/04/18 03:07:05;;;;;;;0.10;0.10;;;;;;;7.38;66.62;101793.25;7363525;19;20014;-62
2024/04/18 03:09:31;;;;;;;0.10;0.10;;;;;;;7.40;66.58;101790.66;7360328;19;20018;-62
2024/04/18 03:11:56;;;;;;;0.10;0.10;;;;;;;7.41;66.99;101793.28;7360805;19;20492;-61
2024/04/18 03:14:22;;;;;;;0.10;0.10;;;;;;;7.40;66.60;101793.25;7331056;19;21518;-62
2024/04/18 03:16:49;;;;;;;0.10;0.10;;;;;;;7.44;66.47;101790.69;7362637;19;20011;-61
2024/04/18 03:19:14;;;;;;;0.10;0.10;;;;;;;7.33;66.86;101783.69;7359165;19;20027;-61
2024/04/18 03:21:40;;;;;;;0.00;0.00;;;;;;;7.41;66.48;101798.50;7360188;19;20040;-62
2024/04/18 03:24:22;;;;;;;0.00;0.00;;;;;;;7.48;65.54;101804.59;7355223;19;20603;-62
2024/04/18 03:26:49;;;;;;;0.10;0.10;;;;;;;7.45;66.04;101802.84;7361270;19;20970;-61
2024/04/18 03:29:14;;;;;;;0.10;0.10;;;;;;;7.29;66.48;101773.25;7363885;19;20090;-61
2024/04/18 03:31:45;;;;;;;0.10;0.10;;;;;;;7.46;66.45;101815.00;7360577;19;20086;-62
2024/04/18 03:34:10;;;;;;;0.10;0.10;;;;;;;7.44;66.74;101808.88;7362745;19;20761;-61
2024/04/18 03:36:52;;;;;;;0.10;0.10;;;;;;;7.31;66.58;101780.22;7360426;19;20025;-62
2024/04/18 03:39:18;;;;;;;0.10;0.10;;;;;;;7.44;66.79;101814.09;7363239;19;20028;-61
2024/04/18 03:41:47;;;;;;;0.10;0.10;;;;;;;7.44;66.43;101798.50;7363687;19;20542;-61
2024/04/18 03:44:13;;;;;;;0.10;0.10;;;;;;;7.44;66.46;101806.28;7362819;19;20074;-62
2024/04/18 03:46:39;;;;;;;0.10;0.10;;;;;;;7.32;66.88;101782.81;7360793;19;20077;-62
2024/04/18 03:49:05;;;;;;;0.10;0.10;;;;;;;7.41;66.66;101802.81;7359662;19;20058;-63
2024/04/18 03:51:30;;;;;;;0.00;0.00;;;;;;;7.45;66.92;101808.06;7362884;19;20010;-62
2024/04/18 03:53:56;;;;;;;0.10;0.10;;;;;;;7.34;66.97;101796.69;7359195;19;20020;-61
2024/04/18 03:56:22;;;;;;;0.10;0.10;;;;;;;7.40;67.31;101801.06;7360590;19;20086;-62
2024/04/18 03:58:47;;;;;;;0.10;0.10;;;;;;;7.45;67.19;101821.06;7361574;19;20086;-62
2024/04/18 04:01:13;;;;;;;0.00;0.00;;;;;;;7.46;66.85;101822.78;7354465;19;20022;-62
2024/04/18 04:03:38;;;;;;;0.05;0.05;;;;;;;7.43;66.78;101817.53;7363146;19;20013;-62
2024/04/18 04:06:04;;;;;;;0.10;0.10;;;;;;;7.45;66.90;101825.34;7360487;19;20066;-62
2024/04/18 04:08:29;;;;;;;0.10;0.10;;;;;;;7.39;66.97;101815.78;7357746;19;20643;-61
2024/04/18 04:10:54;;;;;;;0.10;0.10;;;;;;;7.44;66.44;101821.88;7354519;19;20006;-62
2024/04/18 04:13:20;;;;;;;0.10;0.10;;;;;;;7.44;66.67;101814.09;7354219;19;20030;-61
2024/04/18 04:15:49;;;;;;;0.10;0.10;;;;;;;7.45;66.95;101809.75;7362334;19;20010;-63
2024/04/18 04:18:15;;;;;;;0.08;0.08;;;;;;;7.44;66.98;101806.28;7361164;19;20015;-61
2024/04/18 04:20:44;;;;;;;0.10;0.10;;;;;;;7.29;66.55;101777.59;7358022;19;20476;-62
2024/04/18 04:23:09;;;;;;;0.10;0.10;;;;;;;7.44;66.32;101798.50;7358356;19;20021;-62
2024/04/18 04:25:35;;;;;;;0.00;0.00;;;;;;;7.44;66.02;101787.22;7359571;19;20482;-62
2024/04/18 04:28:01;;;;;;;0.10;0.10;;;;;;;7.41;66.71;101790.69;7369425;19;20007;-61
2024/04/18 04:30:26;;;;;;;0.10;0.10;;;;;;;7.41;66.97;101782.91;7368111;19;20036;-61
2024/04/18 04:32:51;;;;;;;0.03;0.03;;;;;;;7.40;67.27;101788.97;7363098;19;20041;-62
2024/04/18 04:35:17;;;;;;;0.10;0.10;;;;;;;7.29;66.58;101777.59;7368459;19;20029;-62
2024/04/18 04:37:43;;;;;;;0.10;0.10;;;;;;;7.10;67.17;101740.22;7367234;19;20033;-62
2024/04/18 04:40:08;;;;;;;0.10;0.10;;;;;;;7.35;66.87;101787.16;7363810;19;20019;-61
2024/04/18 04:42:34;;;;;;;0.10;0.10;;;;;;;7.33;66.32;101784.56;7367382;19;20014;-62
2024/04/18 04:44:59;;;;;;;0.10;0.10;;;;;;;7.29;66.82;101787.97;7361271;19;20516;-62
2024/04/18 04:47:25;;;;;;;0.10;0.10;;;;;;;7.20;67.13;101782.72;7351259;19;20002;-62
2024/04/18 04:49:50;;;;;;;0.10;0.10;;;;;;;7.22;66.94;101794.00;7364975;19;20372;-62
2024/04/18 04:52:16;;;;;;;0.10;0.10;;;;;;;7.22;67.23;101801.78;7368626;19;20007;-62
2024/04/18 04:54:42;;;;;;;0.10;0.10;;;;;;;7.20;66.82;101806.09;7365406;19;20002;-62
2024/04/18 04:57:08;;;;;;;0.00;0.00;;;;;;;7.17;67.23;101811.25;7365191;19;20002;-61
2024/04/18 04:59:34;;;;;;;0.00;0.00;;;;;;;7.01;67.29;101792.94;7364967;19;20432;-61
2024/04/18 05:01:59;;;;;;;0.10;0.10;;;;;;;7.13;67.18;101812.97;7364358;19;20006;-62
2024/04/18 05:04:24;;;;;;;0.00;0.00;;;;;;;7.11;67.15;101814.69;7369207;19;20093;-61
2024/04/18 05:06:50;;;;;;;0.10;0.10;;;;;;;7.08;67.33;101808.56;7365406;19;20003;-60
2024/04/18 05:09:16;;;;;;;0.10;0.10;;;;;;;7.08;67.49;101819.84;7367092;19;20577;-62
2024/04/18 05:11:42;;;;;;;0.10;0.10;;;;;;;7.07;67.16;101823.28;7362012;19;20022;-61
2024/04/18 05:14:07;;;;;;;0.10;0.10;;;;;;;6.86;67.23;101787.59;7365893;19;21472;-62
2024/04/18 05:16:33;;;;;;;0.10;0.10;;;;;;;7.03;67.20;101813.72;7356098;19;20026;-62
2024/04/18 05:18:58;;;;;;;0.10;0.10;;;;;;;7.07;67.54;101822.44;7367163;19;20006;-62
2024/04/18 05:21:23;;;;;;;0.10;0.10;;;;;;;7.08;67.26;101834.53;7367404;19;21102;-62
2024/04/18 05:23:49;;;;;;;0.10;0.10;;;;;;;7.07;66.98;101828.50;7366465;19;20082;-61
2024/04/18 05:26:14;;;;;;;0.05;0.05;;;;;;;7.07;67.02;101812.91;7364656;19;20321;-62
2024/04/18 05:31:00;;;;;;;0.10;0.10;;;;;;;7.11;67.09;101819.00;7368443;19;20006;-61
2024/04/18 05:31:29;;;;;;;0.10;0.10;;;;;;;7.13;67.42;101825.06;7364780;19;20007;-62
2024/04/18 05:33:54;;;;;;;0.10;0.10;;;;;;;6.98;67.62;101798.09;7368516;19;21803;-62
2024/04/18 05:36:20;;;;;;;0.03;0.03;;;;;;;7.17;67.54;101822.53;7359902;19;20109;-61
2024/04/18 05:38:45;;;;;;;0.00;0.00;;;;;;;7.13;67.54;101812.97;7366762;19;20031;-62
2024/04/18 05:41:10;;;;;;;0.10;0.10;;;;;;;7.22;67.70;101830.38;7363633;19;20014;-61
2024/04/18 05:43:36;;;;;;;0.10;0.10;;;;;;;7.23;67.72;101824.31;7366274;19;20021;-63
2024/04/18 05:46:01;;;;;;;0.08;0.08;;;;;;;7.26;67.57;101808.75;7366098;19;20383;-62
2024/04/18 05:48:27;;;;;;;0.00;0.00;;;;;;;7.33;67.79;101826.13;7359357;19;20014;-62
2024/04/18 05:50:52;;;;;;;0.00;0.00;;;;;;;7.28;67.50;101801.84;7366017;19;20588;-61
2024/04/18 05:53:18;;;;;;;0.00;0.00;;;;;;;7.40;67.56;101822.75;7364160;19;20028;-61
2024/04/18 05:55:44;;;;;;;0.00;0.00;;;;;;;7.44;67.93;101821.88;7366938;19;20019;-61
2024/04/18 05:58:09;;;;;;;0.03;0.03;;;;;;;7.45;67.68;101821.06;7351709;19;20073;-62
2024/04/18 06:00:35;;;;;;;0.10;0.10;;;;;;;7.33;67.93;101797.53;7364439;19;20014;-62
2024/04/18 06:03:01;;;;;;;0.08;0.08;;;;;;;7.56;67.88;101822.88;7366409;19;20028;-61
2024/04/18 06:05:27;;;;;;;0.10;0.10;;;;;;;7.59;67.69;101823.72;7338767;19;22438;-62
2024/04/18 06:07:53;;;;;;;0.10;0.10;;;;;;;7.57;67.82;101814.19;7365980;19;20856;-62
2024/04/18 06:10:18;;;;;;;0.10;0.10;;;;;;;7.55;67.74;101801.16;7362342;19;20013;-62
2024/04/18 06:12:44;;;;;;;0.10;0.10;;;;;;;7.67;67.67;101816.00;7358567;19;20014;-62
2024/04/18 06:15:09;;;;;;;0.10;0.10;;;;;;;7.65;67.55;101796.91;7364059;19;20526;-61
2024/04/18 06:17:36;;;;;;;0.10;0.10;;;;;;;7.77;67.61;101817.81;7363819;19;20010;-61
2024/04/18 06:20:02;;;;;;;0.10;0.10;;;;;;;7.87;67.46;101823.94;7364191;19;20149;-61
2024/04/18 06:22:31;;;;;;;0.10;0.10;;;;;;;7.94;67.69;101829.19;7363027;19;20034;-61
2024/04/18 06:24:56;;;;;;;0.10;0.10;;;;;;;7.96;67.88;101822.28;7363584;19;20854;-61
2024/04/18 06:27:22;;;;;;;0.10;0.10;;;;;;;8.04;67.21;101812.75;7360787;19;20007;-62
2024/04/18 06:29:48;;;;;;;0.00;0.00;;;;;;;8.11;67.53;101818.00;7361523;19;21481;-61
2024/04/18 06:32:14;;;;;;;0.05;0.05;;;;;;;8.17;67.74;101823.25;7364375;19;20014;-61
2024/04/18 06:34:39;;;;;;;0.00;0.00;;;;;;;8.13;67.76;101800.69;7365038;19;20474;-62
2024/04/18 06:37:09;;;;;;;0.10;0.10;;;;;;;8.23;67.36;101813.75;7359936;19;20771;-62
2024/04/18 06:39:34;;;;;;;0.10;0.10;;;;;;;8.35;67.49;101817.25;7358477;19;20017;-62
2024/04/18 06:42:00;;;;;;;0.10;0.10;;;;;;;8.27;67.39;101794.69;7365993;19;20011;-62
2024/04/18 06:44:25;;;;;;;0.10;0.10;;;;;;;8.47;67.49;101806.94;7364692;19;20634;-62
2024/04/18 06:46:51;;;;;;;0.10;0.10;;;;;;;8.49;67.22;101800.84;7360072;19;20394;-62
2024/04/18 06:49:16;;;;;;;0.10;0.10;;;;;;;8.39;67.93;101762.66;7362099;19;20014;-63
2024/04/18 06:51:42;;;;;;;0.10;0.10;;;;;;;8.61;67.62;101794.81;7359020;19;20721;-63
2024/04/18 06:54:08;;;;;;;0.10;0.10;;;;;;;8.64;67.40;101793.97;7363397;19;20011;-61
2024/04/18 06:56:34;;;;;;;0.10;0.10;;;;;;;8.70;67.71;101797.44;7364817;19;20014;-62
2024/04/18 06:58:59;;;;;;;0.10;0.10;;;;;;;8.71;67.62;101790.50;7358908;19;20006;-62
2024/04/18 07:01:24;;;;;;;0.10;0.10;;;;;;;8.80;67.89;101803.56;7362623;19;20094;-62
2024/04/18 07:03:50;;;;;;;0.00;0.00;;;;;;;8.84;67.71;101808.78;7359539;19;20469;-62
2024/04/18 07:06:15;;;;;;;0.10;0.10;;;;;;;8.89;67.63;101803.56;7354802;19;20021;-61
2024/04/18 07:08:41;;;;;;;0.10;0.10;;;;;;;8.97;67.71;101809.69;7362778;19;20003;-61
2024/04/18 07:11:06;;;;;;;0.10;0.10;;;;;;;8.97;67.24;101799.25;7356083;19;20046;-62
2024/04/18 07:13:32;;;;;;;0.10;0.10;;;;;;;9.08;67.56;101813.16;7362685;19;20006;-61
2024/04/18 07:16:02;;;;;;;0.08;0.08;;;;;;;9.07;67.45;101789.69;7360906;19;20031;-61
2024/04/18 07:18:27;;;;;;;0.10;0.10;;;;;;;9.18;67.39;101814.03;7363861;19;20018;-61
2024/04/18 07:20:53;;;;;;;0.10;0.10;;;;;;;9.23;67.81;101811.44;7364670;19;21192;-61
2024/04/18 07:23:18;;;;;;;0.10;0.10;;;;;;;9.30;67.81;101815.78;7362021;19;20018;-62
2024/04/18 07:25:44;;;;;;;0.10;0.10;;;;;;;9.16;67.05;101778.41;7360451;19;20011;-61
2024/04/18 07:28:09;;;;;;;0.08;0.08;;;;;;;9.43;67.43;101820.16;7357681;19;20018;-61
2024/04/18 07:30:34;;;;;;;0.03;0.03;;;;;;;9.48;67.19;101814.91;7359956;19;20082;-61
2024/04/18 07:33:00;;;;;;;0.10;0.10;;;;;;;9.55;66.76;101809.69;7361579;19;20010;-61
2024/04/18 07:35:25;;;;;;;0.05;0.05;;;;;;;9.61;67.39;101814.91;7334639;19;20017;-62
2024/04/18 07:37:55;;;;;;;0.10;0.10;;;;;;;9.66;67.84;101812.28;7361088;19;20659;-61
2024/04/18 07:40:21;;;;;;;0.10;0.10;;;;;;;9.71;67.84;101805.31;7364028;19;20411;-61
2024/04/18 07:42:50;;;;;;;0.10;0.10;;;;;;;9.82;67.15;101800.09;7361724;19;20066;-62
2024/04/18 07:45:16;;;;;;;0.10;0.10;;;;;;;9.85;67.92;101798.34;7364310;19;20491;-61
2024/04/18 07:47:42;;;;;;;0.10;0.10;;;;;;;9.91;67.47;101804.44;7364532;19;20003;-61
2024/04/18 07:50:08;;;;;;;0.00;0.00;;;;;;;9.96;67.62;101806.16;7360600;19;20053;-62
2024/04/18 07:52:34;;;;;;;0.10;0.10;;;;;;;9.99;67.45;101802.69;7359132;19;20466;-62
2024/04/18 07:55:00;;;;;;;0.10;0.10;;;;;;;9.92;67.33;101786.16;7364525;19;20513;-61
2024/04/18 07:57:25;;;;;;;0.10;0.10;;;;;;;9.99;67.43;101782.66;7354130;19;20126;-61
2024/04/18 07:59:50;;;;;;;0.08;0.08;;;;;;;10.14;67.67;101789.59;7359060;19;20018;-61
2024/04/18 08:02:16;;;;;;;0.10;0.10;;;;;;;10.17;67.49;101801.75;7356648;19;20637;-61
2024/04/18 08:04:41;;;;;;;0.10;0.10;;;;;;;10.04;67.15;101773.09;7359889;19;20021;-61
2024/04/18 08:07:07;;;;;;;0.10;0.10;;;;;;;10.23;67.67;101796.50;7360009;19;20007;-61
2024/04/18 08:09:32;;;;;;;0.10;0.10;;;;;;;10.25;67.29;101786.97;7359431;19;20011;-61
2024/04/18 08:11:57;;;;;;;0.10;0.10;;;;;;;10.24;67.70;101780.88;7360778;19;20020;-62
2024/04/18 08:14:23;;;;;;;0.10;0.10;;;;;;;10.27;67.55;101795.66;7352251;19;20046;-61
2024/04/18 08:16:48;;;;;;;0.10;0.10;;;;;;;10.29;67.50;101794.78;7358181;19;20007;-61
2024/04/18 08:19:13;;;;;;;0.10;0.10;;;;;;;10.33;67.94;101799.09;7358592;19;20014;-60
2024/04/18 08:21:39;;;;;;;0.10;0.10;;;;;;;10.33;67.74;101790.38;7356983;19;20021;-61
2024/04/18 08:24:05;;;;;;;0.10;0.10;;;;;;;10.39;67.75;101790.34;7351465;19;20105;-61
2024/04/18 08:26:30;;;;;;;0.10;0.10;;;;;;;10.40;67.62;101789.50;7359325;19;20714;-62
2024/04/18 08:28:55;;;;;;;0.03;0.03;;;;;;;10.48;67.47;101800.78;7360080;19;20011;-61
2024/04/18 08:31:21;;;;;;;0.10;0.10;;;;;;;10.57;67.93;101795.50;7356140;19;20015;-61
2024/04/18 08:33:48;;;;;;;0.08;0.08;;;;;;;10.60;67.93;101785.06;7358481;19;20011;-61
2024/04/18 08:36:13;;;;;;;0.10;0.10;;;;;;;10.72;67.84;101788.47;7358266;19;20022;-61
2024/04/18 08:38:39;;;;;;;0.10;0.10;;;;;;;10.80;67.94;101794.53;7357140;19;20014;-61
2024/04/18 08:41:10;;;;;;;0.10;0.10;;;;;;;10.88;67.79;101795.31;7359226;19;20082;-61
2024/04/18 08:43:36;;;;;;;0.10;0.10;;;;;;;10.94;67.80;101794.41;7358731;19;20003;-62
2024/04/18 08:46:04;;;;;;;0.10;0.10;;;;;;;10.98;67.98;101786.56;7359034;19;20127;-61
2024/04/18 08:48:31;;;;;;;0.10;0.10;;;;;;;11.00;68.11;101774.34;7354178;19;20013;-62
2024/04/18 08:51:00;;;;;;;0.10;0.10;;;;;;;11.06;67.75;101774.31;7360324;19;20221;-61
2024/04/18 08:53:25;;;;;;;0.10;0.10;;;;;;;11.08;67.50;101767.31;7355669;19;20489;-62
2024/04/18 08:55:56;;;;;;;0.10;0.10;;;;;;;11.21;67.56;101777.69;7362529;19;20002;-61
2024/04/18 08:58:22;;;;;;;0.10;0.10;;;;;;;11.23;67.45;101771.53;7357407;19;20015;-62
2024/04/18 09:00:48;;;;;;;0.10;0.10;;;;;;;11.27;67.47;101775.00;7356160;19;20017;-61
2024/04/18 09:03:14;;;;;;;0.10;0.10;;;;;;;11.25;67.02;101758.44;7357325;19;20027;-61
2024/04/18 09:05:42;;;;;;;0.10;0.10;;;;;;;11.33;67.90;101773.19;7359264;19;20123;-61
2024/04/18 09:08:09;;;;;;;0.10;0.10;;;;;;;11.34;67.56;101767.09;7354574;19;20015;-62
2024/04/18 09:10:35;;;;;;;0.10;0.10;;;;;;;11.39;67.28;101767.91;7356444;19;20027;-62
2024/04/18 09:13:01;;;;;;;0.10;0.10;;;;;;;11.44;67.52;101770.50;7357408;19;19994;-61
2024/04/18 09:15:27;;;;;;;0.10;0.10;;;;;;;11.41;67.79;101762.69;7361258;19;20695;-62
2024/04/18 09:18:02;;;;;;;0.10;0.10;;;;;;;11.54;67.56;101766.91;7366947;19;19999;-62
2024/04/18 09:20:29;;;;;;;0.10;0.10;;;;;;;11.55;67.47;101757.31;7362217;19;20017;-61
2024/04/18 09:22:54;;;;;;;0.05;0.05;;;;;;;11.41;67.26;101728.69;7368416;19;20019;-62
2024/04/18 09:25:20;;;;;;;0.10;0.10;;;;;;;11.61;67.95;101763.38;7357921;19;20521;-61
2024/04/18 09:27:46;;;;;;;0.10;0.10;;;;;;;11.67;67.50;101763.28;7370260;19;20014;-62
2024/04/18 09:30:12;;;;;;;0.10;0.10;;;;;;;11.73;67.73;101756.25;7363150;19;20481;-61
2024/04/18 09:32:37;;;;;;;0.10;0.10;;;;;;;11.78;67.74;101754.47;7368632;19;20015;-61
2024/04/18 09:35:04;;;;;;;0.00;0.00;;;;;;;11.85;67.60;101756.16;7364034;19;20011;-61
2024/04/18 09:37:30;;;;;;;0.10;0.10;;;;;;;11.90;67.46;101749.13;7365346;19;20018;-61
2024/04/18 09:39:57;;;;;;;0.10;0.10;;;;;;;11.97;67.06;101749.94;7356586;19;20442;-61
2024/04/18 09:42:36;;;;;;;0.10;0.10;;;;;;;12.07;67.44;101744.56;7368330;19;20015;-61
2024/04/18 09:45:04;;;;;;;0.10;0.10;;;;;;;12.08;67.03;101727.97;7346142;19;20014;-61
2024/04/18 09:47:31;;;;;;;0.10;0.10;;;;;;;12.20;66.95;101740.91;7368008;19;20018;-61
2024/04/18 09:49:57;;;;;;;0.10;0.10;;;;;;;12.12;67.05;101706.09;7363499;19;20862;-61
2024/04/18 09:52:25;;;;;;;0.10;0.10;;;;;;;12.38;67.27;101733.69;7366744;19;20010;-60
2024/04/18 09:54:51;;;;;;;;;;;;;;;12.53;66.17;101730.88;7355793;19;20733;-61
2024/04/18 09:57:18;;;;;;;0.13;0.13;;;;;;;12.55;67.13;101718.59;7365418;19;19923;-62
2024/04/18 09:59:45;;;;;;;0.10;0.10;;;;;;;12.64;66.63;101728.09;7364394;19;20019;-62
2024/04/18 10:02:14;;;;;;;0.10;0.10;;;;;;;12.70;66.45;101720.97;7364757;19;20705;-61
2024/04/18 10:04:41;;;;;;;0.10;0.10;;;;;;;12.56;66.24;101688.88;7365745;19;20027;-61
2024/04/18 10:07:11;;;;;;;0.10;0.10;;;;;;;12.83;66.38;101719.06;7364443;19;20006;-61
2024/04/18 10:09:39;;;;;;;0.10;0.10;;;;;;;12.78;66.40;101699.06;7366247;19;20471;-61
2024/04/18 10:12:06;;;;;;;0.10;0.10;;;;;;;12.91;66.33;101717.16;7361756;19;20547;-62
2024/04/18 10:14:31;;;;;;;0.10;0.10;;;;;;;12.97;66.27;101706.56;7361732;19;20884;-61
2024/04/18 10:16:57;;;;;;;0.10;0.10;;;;;;;13.08;66.42;101701.16;7367216;19;20014;-62
2024/04/18 10:19:23;;;;;;;0.10;0.10;;;;;;;13.20;66.05;101698.31;7366828;19;20449;-61
2024/04/18 10:21:59;;;;;;;0.10;0.10;;;;;;;13.27;65.52;101693.00;7361138;19;20466;-61
2024/04/18 10:24:33;;;;;;;0.10;0.10;;;;;;;13.41;65.40;101711.97;7360800;19;20014;-63
2024/04/18 10:27:00;;;;;;;0.10;0.10;;;;;;;13.45;65.25;101708.41;7363269;19;20363;-62
2024/04/18 10:29:26;;;;;;;0.10;0.10;;;;;;;13.37;64.95;101689.31;7365146;19;20014;-61
2024/04/18 10:31:57;;;;;;;0.10;0.10;;;;;;;13.57;64.49;101713.41;7363135;19;20329;-61
2024/04/18 10:34:28;;;;;;;0.10;0.10;;;;;;;13.56;64.51;101708.22;7361608;19;20010;-61
2024/04/18 10:36:56;;;;;;;0.10;0.10;;;;;;;13.58;64.01;101704.63;7365573;19;20045;-61
2024/04/18 10:39:34;;;;;;;0.20;0.20;;;;;;;13.58;64.23;101694.16;7362886;19;20018;-62
2024/04/18 10:42:05;;;;;;;0.10;0.10;;;;;;;13.57;63.92;101689.78;7362143;19;20006;-61
2024/04/18 10:44:33;;;;;;;0.10;0.10;;;;;;;13.53;64.14;101696.00;7364509;19;20022;-61
2024/04/18 10:46:58;;;;;;;0.10;0.10;;;;;;;13.53;64.13;101690.75;7365555;19;20699;-61
2024/04/18 10:49:24;;;;;;;0.10;0.10;;;;;;;13.53;63.62;101701.25;7357668;19;20011;-61
2024/04/18 10:51:50;;;;;;;0.10;0.10;;;;;;;13.54;63.72;101689.88;7365747;19;20015;-61
2024/04/18 10:54:15;;;;;;;0.10;0.10;;;;;;;13.55;63.67;101688.97;7361233;19;20074;-61
2024/04/18 10:56:41;;;;;;;0.10;0.10;;;;;;;13.46;63.53;101673.41;7359648;19;20006;-61
2024/04/18 10:59:07;;;;;;;0.10;0.10;;;;;;;13.59;63.14;101690.66;7361460;19;20021;-59
2024/04/18 11:01:37;;;;;;;0.15;0.15;;;;;;;13.55;63.44;101688.97;7358867;19;20680;-60
2024/04/18 11:04:03;;;;;;;0.10;0.10;;;;;;;13.60;63.48;101683.63;7363973;19;20010;-58
2024/04/18 11:06:28;;;;;;;0.10;0.10;;;;;;;13.54;63.36;101668.88;7366956;19;20014;-59
2024/04/18 11:08:54;;;;;;;0.10;0.10;;;;;;;13.66;63.04;101678.25;7360712;19;20015;-59
2024/04/18 11:11:25;;;;;;;0.10;0.10;;;;;;;13.70;63.33;101678.19;7360088;19;20015;-59
2024/04/18 11:13:52;;;;;;;0.10;0.10;;;;;;;13.74;62.86;101679.84;7360894;19;20025;-59
2024/04/18 11:16:17;;;;;;;0.10;0.10;;;;;;;13.79;63.04;101678.88;7361940;19;20007;-59
2024/04/18 11:18:43;;;;;;;0.10;0.10;;;;;;;13.77;62.70;101671.03;7366559;19;20062;-60
2024/04/18 11:21:08;;;;;;;0.10;0.10;;;;;;;13.89;62.19;101688.28;7363661;19;20022;-60
2024/04/18 11:23:35;;;;;;;0.10;0.10;;;;;;;13.92;62.66;101672.47;7362169;19;20026;-60
2024/04/18 11:26:00;;;;;;;0.20;0.20;;;;;;;13.94;62.70;101676.81;7364968;19;20022;-60
2024/04/18 11:28:25;;;;;;;0.10;0.10;;;;;;;14.02;62.52;101668.75;7357877;19;20689;-59